createdAt,value
2023-01-07T00:01:09.354Z,7.60
2023-01-07T00:03:37.266Z,7.60
2023-01-07T00:06:15.577Z,7.60
2023-01-07T00:08:47.633Z,7.70
2023-01-07T00:11:26.033Z,7.60
2023-01-07T00:13:54.353Z,7.60
2023-01-07T00:16:23.570Z,7.70
2023-01-07T00:18:55.283Z,7.80
2023-01-07T00:21:23.351Z,7.80
2023-01-07T00:23:54.347Z,7.80
2023-01-07T00:26:23.193Z,7.80
2023-01-07T00:28:51.757Z,7.70
2023-01-07T00:31:23.944Z,7.80
2023-01-07T00:33:54.196Z,7.80
2023-01-07T00:36:26.480Z,7.80
2023-01-07T00:38:58.253Z,7.70
2023-01-07T00:41:25.388Z,7.60
2023-01-07T00:43:52.077Z,7.60
2023-01-07T00:46:19.331Z,7.60
2023-01-07T00:48:46.225Z,7.40
2023-01-07T00:51:14.380Z,7.60
2023-01-07T00:53:41.460Z,7.60
2023-01-07T00:56:10.337Z,7.60
2023-01-07T00:58:37.010Z,7.60
2023-01-07T01:01:04.556Z,7.60
2023-01-07T01:03:32.466Z,7.50
2023-01-07T01:06:04.758Z,7.50
2023-01-07T01:08:31.325Z,7.40
2023-01-07T01:11:06.483Z,7.40
2023-01-07T01:13:33.223Z,7.40
2023-01-07T01:16:00.222Z,7.40
2023-01-07T01:18:26.905Z,7.40
2023-01-07T01:20:54.901Z,7.40
2023-01-07T01:23:21.778Z,7.40
2023-01-07T01:25:48.397Z,7.40
2023-01-07T01:28:15.005Z,7.40
2023-01-07T01:30:41.573Z,7.40
2023-01-07T01:33:08.139Z,7.40
2023-01-07T01:35:38.825Z,7.40
2023-01-07T01:38:05.377Z,7.40
2023-01-07T01:40:31.983Z,7.40
2023-01-07T01:42:58.533Z,7.30
2023-01-07T01:45:25.835Z,7.30
2023-01-07T01:48:04.600Z,7.30
2023-01-07T01:50:44.028Z,7.40
2023-01-07T01:53:21.189Z,7.40
2023-01-07T01:55:56.944Z,7.30
2023-01-07T01:58:38.921Z,7.20
2023-01-07T02:01:05.801Z,7.10
2023-01-07T02:03:35.275Z,7.10
2023-01-07T02:06:03.154Z,7.10
2023-01-07T02:08:30.177Z,7.10
2023-01-07T02:11:24.957Z,7.10
2023-01-07T02:14:09.994Z,7.00
2023-01-07T02:16:51.193Z,7.10
2023-01-07T02:19:49.136Z,7.10
2023-01-07T02:22:42.353Z,7.10
2023-01-07T02:25:35.088Z,7.10
2023-01-07T02:28:12.270Z,7.20
2023-01-07T02:31:12.247Z,7.30
2023-01-07T02:34:12.012Z,7.30
2023-01-07T02:37:01.745Z,7.40
2023-01-07T02:39:36.582Z,7.40
2023-01-07T02:42:27.311Z,7.40
2023-01-07T02:45:07.475Z,7.40
2023-01-07T02:47:43.114Z,7.40
2023-01-07T02:50:10.164Z,7.40
2023-01-07T02:52:37.275Z,7.40
2023-01-07T02:55:09.453Z,7.40
2023-01-07T02:58:03.467Z,7.40
2023-01-07T03:01:07.103Z,7.30
2023-01-07T03:03:50.671Z,7.30
2023-01-07T03:06:55.382Z,7.30
2023-01-07T03:09:46.205Z,7.30
2023-01-07T03:12:36.876Z,7.30
2023-01-07T03:15:13.078Z,7.30
2023-01-07T03:18:02.415Z,7.20
2023-01-07T03:20:31.983Z,6.90
2023-01-07T03:22:58.622Z,7.20
2023-01-07T03:25:28.431Z,7.20
2023-01-07T03:27:57.152Z,7.20
2023-01-07T03:30:25.063Z,7.20
2023-01-07T03:33:24.140Z,7.20
2023-01-07T03:35:53.288Z,7.20
2023-01-07T03:38:22.784Z,7.20
2023-01-07T03:40:50.294Z,7.30
2023-01-07T03:43:20.468Z,7.40
2023-01-07T03:45:48.730Z,7.50
2023-01-07T03:48:15.342Z,7.50
2023-01-07T03:50:41.895Z,7.50
2023-01-07T03:53:08.468Z,7.50
2023-01-07T03:55:35.128Z,7.50
2023-01-07T03:58:01.962Z,7.60
2023-01-07T04:00:28.551Z,7.50
2023-01-07T04:02:55.294Z,7.20
2023-01-07T04:05:22.887Z,7.60
2023-01-07T04:07:49.494Z,8.90
2023-01-07T04:10:16.145Z,7.60
2023-01-07T04:12:42.721Z,7.60
2023-01-07T04:15:09.545Z,7.60
2023-01-07T04:17:36.099Z,7.50
2023-01-07T04:20:03.038Z,7.40
2023-01-07T04:22:29.838Z,7.40
2023-01-07T04:24:57.926Z,7.30
2023-01-07T04:27:24.518Z,7.40
2023-01-07T04:29:51.108Z,7.30
2023-01-07T04:32:17.640Z,7.30
2023-01-07T04:34:44.193Z,7.30
2023-01-07T04:37:10.768Z,7.30
2023-01-07T04:39:37.362Z,6.90
2023-01-07T04:42:04.019Z,7.30
2023-01-07T04:44:30.632Z,7.30
2023-01-07T04:46:57.200Z,7.30
2023-01-07T04:49:23.808Z,7.30
2023-01-07T04:51:50.388Z,7.30
2023-01-07T04:54:16.933Z,7.30
2023-01-07T04:56:43.489Z,7.20
2023-01-07T04:59:10.077Z,7.30
2023-01-07T05:01:36.756Z,7.30
2023-01-07T05:04:03.606Z,7.30
2023-01-07T05:06:30.241Z,7.40
2023-01-07T05:08:57.002Z,7.40
2023-01-07T05:11:23.591Z,7.40
2023-01-07T05:13:50.335Z,7.40
2023-01-07T05:16:17.195Z,7.40
2023-01-07T05:18:44.140Z,7.10
2023-01-07T05:21:11.094Z,7.40
2023-01-07T05:23:37.893Z,7.50
2023-01-07T05:26:04.671Z,7.40
2023-01-07T05:28:31.306Z,7.40
2023-01-07T05:30:57.909Z,7.40
2023-01-07T05:33:24.534Z,7.40
2023-01-07T05:35:51.102Z,7.50
2023-01-07T05:38:17.660Z,7.50
2023-01-07T05:40:49.634Z,7.50
2023-01-07T05:43:17.218Z,7.60
2023-01-07T05:45:45.656Z,7.60
2023-01-07T05:48:13.537Z,7.60
2023-01-07T05:50:40.250Z,7.60
2023-01-07T05:53:07.074Z,7.70
2023-01-07T05:55:35.842Z,7.60
2023-01-07T05:58:02.537Z,7.60
2023-01-07T06:00:29.135Z,7.70
2023-01-07T06:02:55.680Z,7.70
2023-01-07T06:05:22.518Z,7.70
2023-01-07T06:07:49.564Z,7.70
2023-01-07T06:10:16.306Z,7.80
2023-01-07T06:12:42.885Z,7.80
2023-01-07T06:15:09.909Z,7.70
2023-01-07T06:17:36.565Z,7.70
2023-01-07T06:20:03.529Z,7.70
2023-01-07T06:22:30.114Z,7.70
2023-01-07T06:24:56.717Z,7.70
2023-01-07T06:27:23.338Z,7.70
2023-01-07T06:29:49.925Z,7.60
2023-01-07T06:32:16.485Z,7.60
2023-01-07T06:34:43.049Z,7.50
2023-01-07T06:37:10.095Z,7.60
2023-01-07T06:39:36.644Z,7.70
2023-01-07T06:42:03.230Z,7.70
2023-01-07T06:44:29.966Z,7.70
2023-01-07T06:46:56.531Z,7.70
2023-01-07T06:49:23.067Z,7.80
2023-01-07T06:51:49.649Z,7.80
2023-01-07T06:54:16.242Z,7.80
2023-01-07T06:56:42.848Z,7.80
2023-01-07T06:59:10.794Z,7.90
2023-01-07T07:01:37.560Z,7.90
2023-01-07T07:04:04.275Z,7.90
2023-01-07T07:06:30.845Z,8.10
2023-01-07T07:08:57.431Z,7.80
2023-01-07T07:11:23.996Z,7.90
2023-01-07T07:13:50.581Z,7.90
2023-01-07T07:16:17.260Z,7.90
2023-01-07T07:18:43.812Z,7.90
2023-01-07T07:21:10.606Z,8.00
2023-01-07T07:23:37.170Z,7.90
2023-01-07T07:26:03.808Z,7.90
2023-01-07T07:28:30.352Z,7.90
2023-01-07T07:30:57.071Z,7.90
2023-01-07T07:33:23.701Z,8.00
2023-01-07T07:35:50.251Z,8.00
2023-01-07T07:38:18.414Z,8.00
2023-01-07T07:40:45.939Z,8.10
2023-01-07T07:43:13.285Z,8.10
2023-01-07T07:45:41.413Z,8.10
2023-01-07T07:48:09.516Z,8.10
2023-01-07T07:50:36.625Z,8.10
2023-01-07T07:53:03.321Z,8.10
2023-01-07T07:55:29.951Z,8.10
2023-01-07T07:57:58.358Z,7.90
2023-01-07T08:00:25.355Z,8.10
2023-01-07T08:02:51.920Z,8.10
2023-01-07T08:05:18.694Z,8.00
2023-01-07T08:07:45.385Z,8.00
2023-01-07T08:10:12.177Z,8.00
2023-01-07T08:12:39.027Z,8.00
2023-01-07T08:15:06.928Z,8.10
2023-01-07T08:17:33.633Z,8.10
2023-01-07T08:20:00.525Z,8.10
2023-01-07T08:22:27.147Z,8.10
2023-01-07T08:24:53.755Z,8.20
2023-01-07T08:27:20.415Z,8.20
2023-01-07T08:29:47.073Z,8.20
2023-01-07T08:32:13.746Z,8.20
2023-01-07T08:34:40.415Z,8.30
2023-01-07T08:37:06.977Z,8.30
2023-01-07T08:39:33.553Z,8.30
2023-01-07T08:42:00.228Z,8.10
2023-01-07T08:44:26.826Z,8.40
2023-01-07T08:46:54.306Z,8.40
2023-01-07T08:49:21.081Z,8.40
2023-01-07T08:51:47.720Z,8.40
2023-01-07T08:54:14.683Z,8.40
2023-01-07T08:56:41.259Z,8.70
2023-01-07T08:59:07.991Z,8.60
2023-01-07T09:01:34.668Z,8.60
2023-01-07T09:04:01.312Z,8.70
2023-01-07T09:06:27.925Z,8.80
2023-01-07T09:08:54.521Z,8.80
2023-01-07T09:11:21.343Z,8.90
2023-01-07T09:13:47.972Z,8.90
2023-01-07T09:16:14.621Z,8.90
2023-01-07T09:18:41.178Z,8.70
2023-01-07T09:21:07.788Z,8.60
2023-01-07T09:23:34.501Z,8.60
2023-01-07T09:26:01.323Z,8.90
2023-01-07T09:28:27.897Z,8.80
2023-01-07T09:30:56.689Z,8.90
2023-01-07T09:33:23.480Z,8.90
2023-01-07T09:35:50.110Z,8.90
2023-01-07T09:38:16.711Z,9.00
2023-01-07T09:40:44.881Z,9.00
2023-01-07T09:43:17.781Z,9.10
2023-01-07T09:45:53.296Z,9.10
2023-01-07T09:48:26.822Z,9.10
2023-01-07T09:51:01.949Z,9.20
2023-01-07T09:53:37.593Z,9.30
2023-01-07T09:56:12.043Z,9.30
2023-01-07T09:58:41.766Z,9.20
2023-01-07T10:01:19.935Z,9.30
2023-01-07T10:03:58.651Z,9.30
2023-01-07T10:06:58.849Z,9.30
2023-01-07T10:09:28.440Z,9.30
2023-01-07T10:12:06.123Z,9.30
2023-01-07T10:15:11.295Z,9.30
2023-01-07T10:17:42.326Z,9.30
2023-01-07T10:20:35.906Z,9.20
2023-01-07T10:23:13.177Z,9.40
2023-01-07T10:25:47.886Z,9.30
2023-01-07T10:29:07.746Z,9.30
2023-01-07T10:31:34.908Z,9.30
2023-01-07T10:34:02.540Z,9.30
2023-01-07T10:36:45.605Z,9.30
2023-01-07T10:39:31.110Z,9.40
2023-01-07T10:42:15.618Z,9.50
2023-01-07T10:45:15.429Z,9.40
2023-01-07T10:48:01.214Z,9.40
2023-01-07T10:50:42.377Z,9.40
2023-01-07T10:53:27.405Z,9.50
2023-01-07T10:56:18.632Z,9.50
2023-01-07T10:58:47.020Z,9.40
2023-01-07T11:01:29.618Z,9.50
2023-01-07T11:03:59.847Z,9.40
2023-01-07T11:06:46.790Z,9.50
2023-01-07T11:09:20.614Z,9.50
2023-01-07T11:11:49.334Z,9.50
2023-01-07T11:14:37.877Z,9.50
2023-01-07T11:17:15.160Z,9.50
2023-01-07T11:19:45.001Z,9.50
2023-01-07T11:22:26.982Z,9.50
2023-01-07T11:24:58.456Z,9.40
2023-01-07T11:27:28.405Z,9.40
2023-01-07T11:30:02.625Z,9.40
2023-01-07T11:32:32.587Z,9.30
2023-01-07T11:35:05.304Z,9.30
2023-01-07T11:37:38.180Z,9.30
2023-01-07T11:40:13.867Z,9.40
2023-01-07T11:42:51.915Z,9.40
2023-01-07T11:45:27.579Z,9.50
2023-01-07T11:48:04.538Z,9.60
2023-01-07T11:50:54.984Z,9.60
2023-01-07T11:53:39.531Z,9.70
2023-01-07T11:56:09.756Z,9.80
2023-01-07T11:58:38.533Z,9.80
2023-01-07T12:01:08.331Z,9.90
2023-01-07T12:03:36.790Z,10.20
2023-01-07T12:06:25.366Z,10.10
2023-01-07T12:08:59.706Z,10.20
2023-01-07T12:11:32.656Z,10.20
2023-01-07T12:14:08.614Z,10.30
2023-01-07T12:16:36.330Z,10.30
2023-01-07T12:19:31.525Z,10.40
2023-01-07T12:22:26.592Z,10.30
2023-01-07T12:25:26.930Z,10.30
2023-01-07T12:28:13.490Z,10.40
2023-01-07T12:31:08.881Z,10.50
2023-01-07T12:33:56.515Z,10.50
2023-01-07T12:36:45.889Z,10.50
2023-01-07T12:39:30.989Z,10.50
2023-01-07T12:42:09.326Z,10.60
2023-01-07T12:44:43.629Z,10.60
2023-01-07T12:47:32.376Z,10.60
2023-01-07T12:50:24.014Z,10.70
2023-01-07T12:52:57.769Z,10.70
2023-01-07T12:55:37.528Z,10.70
2023-01-07T12:58:16.672Z,10.80
2023-01-07T13:01:01.946Z,10.70
2023-01-07T13:03:50.093Z,10.70
2023-01-07T13:06:44.431Z,10.60
2023-01-07T13:09:40.174Z,10.60
2023-01-07T13:12:46.087Z,10.70
2023-01-07T13:15:28.313Z,10.70
2023-01-07T13:18:19.206Z,10.60
2023-01-07T13:21:08.293Z,10.70
2023-01-07T13:24:19.092Z,10.70
2023-01-07T13:26:48.999Z,10.80
2023-01-07T13:29:51.379Z,10.80
2023-01-07T13:32:45.484Z,10.70
2023-01-07T13:35:30.666Z,10.70
2023-01-07T13:38:30.916Z,10.70
2023-01-07T13:41:12.005Z,10.70
2023-01-07T13:43:50.811Z,10.60
2023-01-07T13:46:25.689Z,10.60
2023-01-07T13:48:54.324Z,10.40
2023-01-07T13:51:31.237Z,10.40
2023-01-07T13:53:58.108Z,10.40
2023-01-07T13:56:24.723Z,10.30
2023-01-07T13:58:53.528Z,10.30
2023-01-07T14:01:44.375Z,10.40
2023-01-07T14:04:33.831Z,10.20
2023-01-07T14:07:01.292Z,10.40
2023-01-07T14:09:33.664Z,10.30
2023-01-07T14:12:19.664Z,10.30
2023-01-07T14:15:06.529Z,10.20
2023-01-07T14:18:06.423Z,10.20
2023-01-07T14:20:48.408Z,10.10
2023-01-07T14:23:48.064Z,10.10
2023-01-07T14:26:40.521Z,10.10
2023-01-07T14:29:26.784Z,10.10
2023-01-07T14:32:13.859Z,10.00
2023-01-07T14:34:40.590Z,10.00
2023-01-07T14:37:13.509Z,10.00
2023-01-07T14:39:45.150Z,9.90
2023-01-07T14:42:43.518Z,9.90
2023-01-07T14:45:41.215Z,9.90
2023-01-07T14:48:07.725Z,9.80
2023-01-07T14:51:03.759Z,9.80
2023-01-07T14:54:05.060Z,9.70
2023-01-07T14:57:01.568Z,9.60
2023-01-07T14:59:41.771Z,9.60
2023-01-07T15:02:46.001Z,9.50
2023-01-07T15:05:41.259Z,9.50
2023-01-07T15:08:29.574Z,9.40
2023-01-07T15:11:17.097Z,9.40
2023-01-07T15:14:11.334Z,9.20
2023-01-07T15:16:38.281Z,9.10
2023-01-07T15:19:08.952Z,9.00
2023-01-07T15:22:03.486Z,8.90
2023-01-07T15:24:48.393Z,8.90
2023-01-07T15:27:21.470Z,8.90
2023-01-07T15:30:15.768Z,8.90
2023-01-07T15:33:02.112Z,9.00
2023-01-07T15:35:37.598Z,8.90
2023-01-07T15:38:05.406Z,8.90
2023-01-07T15:40:32.096Z,8.90
2023-01-07T15:42:59.263Z,9.00
2023-01-07T15:45:27.764Z,9.00
2023-01-07T15:48:11.527Z,9.00
2023-01-07T15:50:40.816Z,9.10
2023-01-07T15:53:20.413Z,9.10
2023-01-07T15:56:01.646Z,9.10
2023-01-07T15:58:35.991Z,9.20
2023-01-07T16:01:04.203Z,9.20
2023-01-07T16:03:32.864Z,9.20
2023-01-07T16:06:00.564Z,9.20
2023-01-07T16:08:33.315Z,9.30
2023-01-07T16:11:23.802Z,9.20
2023-01-07T16:13:59.361Z,9.20
2023-01-07T16:16:27.590Z,9.20
2023-01-07T16:18:59.154Z,9.30
2023-01-07T16:21:30.043Z,9.30
2023-01-07T16:23:56.741Z,9.40
2023-01-07T16:26:32.772Z,9.50
2023-01-07T16:29:09.762Z,9.60
2023-01-07T16:31:37.249Z,9.50
2023-01-07T16:34:25.970Z,9.60
2023-01-07T16:36:55.753Z,9.60
2023-01-07T16:39:29.378Z,9.70
2023-01-07T16:42:14.984Z,9.70
2023-01-07T16:44:44.440Z,9.70
2023-01-07T16:47:17.821Z,9.80
2023-01-07T16:49:45.000Z,9.80
2023-01-07T16:52:17.182Z,9.80
2023-01-07T16:54:48.749Z,9.90
2023-01-07T16:57:15.339Z,9.80
2023-01-07T16:59:53.765Z,9.80
2023-01-07T17:02:38.434Z,9.80
2023-01-07T17:05:25.982Z,9.90
2023-01-07T17:07:55.273Z,9.90
2023-01-07T17:10:31.075Z,9.90
2023-01-07T17:13:13.996Z,9.90
2023-01-07T17:15:41.812Z,9.90
2023-01-07T17:18:11.407Z,9.90
2023-01-07T17:20:47.663Z,9.90
2023-01-07T17:23:40.045Z,9.90
2023-01-07T17:26:13.093Z,9.80
2023-01-07T17:28:54.961Z,9.90
2023-01-07T17:31:23.447Z,9.90
2023-01-07T17:33:51.442Z,9.90
2023-01-07T17:36:20.589Z,9.90
2023-01-07T17:38:47.393Z,9.90
2023-01-07T17:41:48.831Z,9.80
2023-01-07T17:44:15.411Z,9.00
2023-01-07T17:46:42.361Z,9.60
2023-01-07T17:49:11.388Z,9.90
2023-01-07T17:51:40.554Z,9.80
2023-01-07T17:54:07.777Z,9.90
2023-01-07T17:56:34.414Z,9.90
2023-01-07T17:59:01.038Z,9.80
2023-01-07T18:01:28.025Z,9.90
2023-01-07T18:03:54.938Z,9.90
2023-01-07T18:06:23.428Z,9.90
2023-01-07T18:08:51.644Z,10.30
2023-01-07T18:11:43.089Z,10.70
2023-01-07T18:14:12.871Z,9.80
2023-01-07T18:16:39.638Z,9.80
2023-01-07T18:19:06.315Z,9.90
2023-01-07T18:21:32.906Z,9.90
2023-01-07T18:23:59.494Z,9.90
2023-01-07T18:26:26.291Z,9.90
2023-01-07T18:28:52.940Z,9.90
2023-01-07T18:31:19.536Z,9.90
2023-01-07T18:33:46.125Z,9.80
2023-01-07T18:36:12.740Z,9.80
2023-01-07T18:38:39.892Z,9.90
2023-01-07T18:41:06.761Z,9.90
2023-01-07T18:43:33.387Z,9.90
2023-01-07T18:46:00.303Z,9.90
2023-01-07T18:48:27.024Z,9.90
2023-01-07T18:50:53.622Z,9.80
2023-01-07T18:53:22.349Z,9.90
2023-01-07T18:55:57.764Z,9.80
2023-01-07T18:58:24.434Z,9.70
2023-01-07T19:00:51.115Z,9.80
2023-01-07T19:03:17.800Z,9.80
2023-01-07T19:05:44.452Z,9.80
2023-01-07T19:08:11.016Z,9.70
2023-01-07T19:10:41.619Z,9.70
2023-01-07T19:13:08.363Z,8.80
2023-01-07T19:15:35.068Z,9.60
2023-01-07T19:18:01.669Z,9.50
2023-01-07T19:20:28.251Z,9.20
2023-01-07T19:23:00.312Z,9.60
2023-01-07T19:25:30.877Z,9.60
2023-01-07T19:27:57.963Z,9.60
2023-01-07T19:30:24.861Z,9.70
2023-01-07T19:32:53.037Z,9.80
2023-01-07T19:35:19.940Z,9.70
2023-01-07T19:37:46.687Z,9.70
2023-01-07T19:40:13.471Z,9.70
2023-01-07T19:42:40.163Z,9.70
2023-01-07T19:45:07.275Z,9.80
2023-01-07T19:47:35.360Z,9.70
2023-01-07T19:50:02.245Z,9.70
2023-01-07T19:52:29.190Z,9.70
2023-01-07T19:54:55.809Z,9.60
2023-01-07T19:57:22.370Z,9.70
2023-01-07T19:59:48.931Z,9.70
2023-01-07T20:02:15.856Z,9.50
2023-01-07T20:04:43.057Z,9.60
2023-01-07T20:07:09.882Z,9.60
2023-01-07T20:09:36.607Z,9.60
2023-01-07T20:12:03.270Z,9.60
2023-01-07T20:14:29.831Z,9.60
2023-01-07T20:16:56.652Z,9.60
2023-01-07T20:19:23.376Z,9.60
2023-01-07T20:21:49.984Z,9.60
2023-01-07T20:24:16.685Z,9.70
2023-01-07T20:26:43.318Z,9.60
2023-01-07T20:29:09.960Z,9.70
2023-01-07T20:31:36.670Z,9.70
2023-01-07T20:34:03.259Z,9.60
2023-01-07T20:36:31.831Z,9.60
2023-01-07T20:39:03.334Z,9.60
2023-01-07T20:41:29.965Z,9.50
2023-01-07T20:43:59.218Z,9.60
2023-01-07T20:46:27.576Z,9.60
2023-01-07T20:48:55.257Z,9.70
2023-01-07T20:51:22.303Z,9.60
2023-01-07T20:53:48.969Z,9.60
2023-01-07T20:56:18.862Z,9.60
2023-01-07T20:58:45.936Z,9.50
2023-01-07T21:01:15.305Z,9.50
2023-01-07T21:03:42.516Z,9.50
2023-01-07T21:06:11.150Z,9.30
2023-01-07T21:08:38.317Z,9.40
2023-01-07T21:11:12.008Z,9.40
2023-01-07T21:13:38.657Z,9.40
2023-01-07T21:16:05.771Z,9.40
2023-01-07T21:18:33.652Z,9.40
2023-01-07T21:21:01.121Z,9.20
2023-01-07T21:23:27.891Z,9.40
2023-01-07T21:25:54.511Z,9.30
2023-01-07T21:28:21.093Z,9.30
2023-01-07T21:30:47.958Z,9.30
2023-01-07T21:33:15.706Z,9.30
2023-01-07T21:35:42.298Z,9.30
2023-01-07T21:38:08.979Z,9.40
2023-01-07T21:40:37.110Z,9.30
2023-01-07T21:43:03.682Z,9.30
2023-01-07T21:45:30.272Z,9.30
2023-01-07T21:47:57.858Z,9.20
2023-01-07T21:50:24.462Z,9.30
2023-01-07T21:52:51.024Z,9.30
2023-01-07T21:55:17.803Z,9.30
2023-01-07T21:57:44.403Z,9.20
2023-01-07T22:00:11.673Z,9.20
2023-01-07T22:02:38.217Z,9.20
2023-01-07T22:05:05.174Z,9.30
2023-01-07T22:07:31.772Z,9.20
2023-01-07T22:09:58.396Z,9.20
2023-01-07T22:12:25.700Z,9.20
2023-01-07T22:14:52.274Z,9.20
2023-01-07T22:17:18.934Z,9.20
2023-01-07T22:19:45.557Z,9.20
2023-01-07T22:22:12.192Z,9.20
2023-01-07T22:24:38.746Z,9.30
2023-01-07T22:27:05.305Z,9.30
2023-01-07T22:29:32.687Z,9.20
2023-01-07T22:31:59.325Z,9.20
2023-01-07T22:34:25.927Z,9.20
2023-01-07T22:37:06.829Z,9.20
2023-01-07T22:39:39.010Z,9.20
2023-01-07T22:42:27.199Z,9.20
2023-01-07T22:44:58.380Z,9.20
2023-01-07T22:47:28.505Z,9.10
2023-01-07T22:49:56.069Z,9.10
2023-01-07T22:52:22.903Z,9.20
2023-01-07T22:54:49.513Z,9.20
2023-01-07T22:57:16.178Z,9.20
2023-01-07T22:59:42.778Z,9.20
2023-01-07T23:02:11.146Z,9.20
2023-01-07T23:04:37.745Z,9.10
2023-01-07T23:07:04.381Z,9.10
2023-01-07T23:09:31.021Z,9.00
2023-01-07T23:12:00.542Z,9.00
2023-01-07T23:14:29.090Z,9.00
2023-01-07T23:16:57.107Z,8.90
2023-01-07T23:19:23.750Z,8.90
2023-01-07T23:21:53.012Z,8.50
2023-01-07T23:24:20.765Z,9.00
2023-01-07T23:26:49.254Z,8.90
2023-01-07T23:29:16.122Z,8.90
2023-01-07T23:31:43.303Z,8.80
2023-01-07T23:34:10.406Z,8.80
2023-01-07T23:36:38.027Z,8.80
2023-01-07T23:39:05.545Z,8.70
2023-01-07T23:41:33.088Z,8.70
2023-01-07T23:43:59.637Z,8.60
2023-01-07T23:46:26.184Z,8.40
2023-01-07T23:48:52.750Z,8.60
2023-01-07T23:51:20.551Z,8.70
2023-01-07T23:53:47.432Z,8.70
2023-01-07T23:56:17.087Z,8.30
2023-01-07T23:58:43.654Z,8.60
